createdAt,value
2019-04-04T00:03:40.059Z,99065.05
2019-04-04T00:08:43.645Z,99063.75
2019-04-04T00:13:47.212Z,99049.24
2019-04-04T00:18:50.872Z,99057.25
2019-04-04T00:23:54.482Z,99057.72
2019-04-04T00:28:58.088Z,99049.47
2019-04-04T00:34:03.567Z,99040.55
2019-04-04T00:39:09.568Z,99031.67
2019-04-04T00:44:13.582Z,99031.23
2019-04-04T00:49:17.191Z,99022.69
2019-04-04T00:54:20.809Z,99021.64
2019-04-04T00:59:24.386Z,99022.52
2019-04-04T01:04:30.862Z,99019.61
2019-04-04T01:09:33.290Z,99018.88
2019-04-04T01:14:36.850Z,99009.87
2019-04-04T01:19:40.463Z,99012.03
2019-04-04T01:24:44.011Z,99003.63
2019-04-04T01:29:47.600Z,98994.77
2019-04-04T01:34:52.132Z,98998.30
2019-04-04T01:39:56.410Z,99001.05
2019-04-04T01:44:59.963Z,98998.84
2019-04-04T01:50:03.636Z,98986.98
2019-04-04T01:55:07.210Z,98978.71
2019-04-04T02:00:14.776Z,98984.89
2019-04-04T02:05:17.115Z,98971.62
2019-04-04T02:10:20.698Z,98972.03
2019-04-04T02:15:24.358Z,98967.30
2019-04-04T02:20:27.970Z,98970.70
2019-04-04T02:25:32.079Z,98968.45
2019-04-04T02:30:36.893Z,98965.59
2019-04-04T02:35:42.739Z,98970.13
2019-04-04T02:40:45.784Z,98973.58
2019-04-04T02:45:49.409Z,98959.46
2019-04-04T02:50:53.315Z,98959.92
2019-04-04T02:55:56.872Z,98954.14
2019-04-04T03:01:00.633Z,98954.19
2019-04-04T03:06:04.989Z,98950.50
2019-04-04T03:11:08.542Z,98948.51
2019-04-04T03:16:12.130Z,98952.66
2019-04-04T03:21:15.694Z,98948.96
2019-04-04T03:26:20.535Z,98943.71
2019-04-04T03:31:24.246Z,98939.98
2019-04-04T03:36:27.821Z,98938.28
2019-04-04T03:41:35.405Z,98940.99
2019-04-04T03:46:38.714Z,98939.20
2019-04-04T03:51:42.023Z,98929.85
2019-04-04T03:56:45.588Z,98929.53
2019-04-04T04:01:49.182Z,98929.43
2019-04-04T04:06:52.748Z,98933.77
2019-04-04T04:11:56.349Z,98928.52
2019-04-04T04:16:59.900Z,98930.44
2019-04-04T04:22:03.474Z,98929.98
2019-04-04T04:27:07.068Z,98937.97
2019-04-04T04:32:10.638Z,98939.52
2019-04-04T04:37:14.211Z,98941.18
2019-04-04T04:42:20.939Z,98941.18
2019-04-04T04:47:24.065Z,98935.34
2019-04-04T04:52:27.777Z,98937.20
2019-04-04T04:57:31.341Z,98938.75
2019-04-04T05:02:34.938Z,98933.13
2019-04-04T05:07:39.086Z,98936.52
2019-04-04T05:12:42.735Z,98945.18
2019-04-04T05:17:46.265Z,98942.19
2019-04-04T05:22:49.852Z,98947.03
2019-04-04T05:27:53.420Z,98942.64
2019-04-04T05:32:57.037Z,98943.20
2019-04-04T05:38:00.609Z,98945.11
2019-04-04T05:43:05.236Z,98935.25
2019-04-04T05:48:08.832Z,98932.24
2019-04-04T05:53:12.384Z,98942.57
2019-04-04T05:58:16.081Z,98940.16
2019-04-04T06:03:19.686Z,98939.23
2019-04-04T06:08:23.270Z,98937.90
2019-04-04T06:13:27.065Z,98941.15
2019-04-04T06:18:31.093Z,98932.98
2019-04-04T06:23:34.835Z,98937.28
2019-04-04T06:28:38.539Z,98928.72
2019-04-04T06:33:42.096Z,98930.02
2019-04-04T06:38:45.673Z,98926.34
2019-04-04T06:43:49.252Z,98924.22
2019-04-04T06:48:52.909Z,98928.20
2019-04-04T06:53:59.364Z,98930.52
2019-04-04T06:59:01.794Z,98918.59
2019-04-04T07:04:05.360Z,98915.19
2019-04-04T07:09:08.944Z,98927.30
2019-04-04T07:14:12.506Z,98910.55
2019-04-04T07:19:16.090Z,98918.55
2019-04-04T07:24:19.656Z,98919.95
2019-04-04T07:29:25.320Z,98922.62
2019-04-04T07:34:28.537Z,98925.30
2019-04-04T07:39:32.769Z,98930.77
2019-04-04T07:44:36.556Z,98926.89
2019-04-04T07:49:40.417Z,98913.10
2019-04-04T07:54:43.989Z,98909.32
2019-04-04T07:59:47.576Z,98918.62
2019-04-04T08:04:51.153Z,98914.95
2019-04-04T08:09:54.760Z,98910.47
2019-04-04T08:14:58.416Z,98906.98
2019-04-04T08:20:01.974Z,98921.30
2019-04-04T08:25:05.830Z,98898.45
2019-04-04T08:30:09.404Z,98908.49
2019-04-04T08:35:13.010Z,98901.42
2019-04-04T08:40:16.631Z,98894.11
2019-04-04T08:45:20.249Z,98915.34
2019-04-04T08:50:23.869Z,98891.52
2019-04-04T08:55:27.489Z,98897.03
2019-04-04T09:00:31.051Z,98886.46
2019-04-04T09:05:34.730Z,98892.47
2019-04-04T09:10:38.348Z,98885.57
2019-04-04T09:15:41.973Z,98882.68
2019-04-04T09:20:45.585Z,98899.91
2019-04-04T09:25:49.211Z,98879.28
2019-04-04T09:30:52.936Z,98897.17
2019-04-04T09:35:56.551Z,98881.78
2019-04-04T09:41:00.169Z,98868.90
2019-04-04T09:46:03.791Z,98867.93
2019-04-04T09:51:07.406Z,98866.28
2019-04-04T09:56:10.953Z,98862.17
2019-04-04T10:01:14.521Z,98882.06
2019-04-04T10:06:18.102Z,98865.31
2019-04-04T10:11:21.781Z,98863.31
2019-04-04T10:16:25.605Z,98877.61
2019-04-04T10:21:29.195Z,98853.27
2019-04-04T10:26:32.755Z,98864.03
2019-04-04T10:31:36.329Z,98838.03
2019-04-04T10:36:39.935Z,98835.88
2019-04-04T10:41:43.481Z,98843.11
2019-04-04T10:46:47.436Z,98824.39
2019-04-04T10:51:51.047Z,98821.89
2019-04-04T10:56:54.597Z,98818.22
2019-04-04T11:03:19.344Z,98834.72
2019-04-04T11:08:23.006Z,98839.58
2019-04-04T11:13:33.440Z,98831.73
2019-04-04T11:18:31.894Z,98818.13
2019-04-04T11:23:35.634Z,98811.39
2019-04-04T11:28:39.741Z,98824.93
2019-04-04T11:33:43.364Z,98833.02
2019-04-04T11:38:46.982Z,98827.67
2019-04-04T11:43:50.597Z,98816.15
2019-04-04T11:48:54.213Z,98828.54
2019-04-04T11:53:57.834Z,98820.54
2019-04-04T11:59:01.968Z,98824.33
2019-04-04T12:04:05.590Z,98800.09
2019-04-04T12:09:09.888Z,98794.45
2019-04-04T12:14:13.542Z,98786.27
2019-04-04T12:19:17.163Z,98789.79
2019-04-04T12:24:20.779Z,98800.92
2019-04-04T12:29:24.463Z,98789.44
2019-04-04T12:34:28.120Z,98785.26
2019-04-04T12:39:31.841Z,98778.28
2019-04-04T12:44:35.472Z,98786.79
2019-04-04T12:49:39.078Z,98779.69
2019-04-04T12:54:42.732Z,98783.00
2019-04-04T12:59:46.326Z,98789.58
2019-04-04T13:04:49.945Z,98794.00
2019-04-04T13:09:53.784Z,98768.34
2019-04-04T13:14:57.490Z,98763.01
2019-04-04T13:20:01.121Z,98757.53
2019-04-04T13:25:08.517Z,98755.14
2019-04-04T13:30:13.156Z,98752.83
2019-04-04T13:35:17.497Z,98769.80
2019-04-04T13:40:21.110Z,98769.88
2019-04-04T13:45:25.363Z,98763.21
2019-04-04T13:50:29.790Z,98757.48
2019-04-04T13:55:33.356Z,98763.29
2019-04-04T14:00:37.028Z,98762.74
2019-04-04T14:05:40.651Z,98759.29
2019-04-04T14:10:44.262Z,98754.01
2019-04-04T14:15:47.888Z,98758.63
2019-04-04T14:21:03.460Z,98762.08
2019-04-04T14:26:00.756Z,98756.28
2019-04-04T14:31:05.303Z,98750.17
2019-04-04T14:36:09.317Z,98734.20
2019-04-04T14:41:13.056Z,98760.44
2019-04-04T14:46:16.663Z,98746.77
2019-04-04T14:51:20.292Z,98774.15
2019-04-04T14:56:23.924Z,98750.69
2019-04-04T15:01:27.530Z,98748.56
2019-04-04T15:06:31.142Z,98748.09
2019-04-04T15:11:34.763Z,98747.23
2019-04-04T15:16:38.381Z,98750.92
2019-04-04T15:21:42.006Z,98754.45
2019-04-04T15:26:46.004Z,98756.69
2019-04-04T15:31:49.648Z,98769.22
2019-04-04T15:36:53.263Z,98771.41
2019-04-04T15:41:56.887Z,98774.47
2019-04-04T15:47:00.506Z,98769.69
2019-04-04T15:52:05.149Z,98772.27
2019-04-04T15:57:08.767Z,98780.14
2019-04-04T16:02:12.387Z,98777.26
2019-04-04T16:07:16.211Z,98786.92
2019-04-04T16:12:19.833Z,98796.46
2019-04-04T16:17:23.452Z,98791.38
2019-04-04T16:22:27.077Z,98796.30
2019-04-04T16:27:30.694Z,98798.34
2019-04-04T16:32:34.665Z,98791.08
2019-04-04T16:37:38.452Z,98793.44
2019-04-04T16:42:42.066Z,98793.72
2019-04-04T16:47:45.794Z,98799.23
2019-04-04T16:52:58.447Z,98803.36
2019-04-04T16:58:02.055Z,98810.91
2019-04-04T17:03:05.677Z,98807.44
2019-04-04T17:08:09.276Z,98816.84
2019-04-04T17:13:12.895Z,98818.92
2019-04-04T17:18:16.474Z,98827.56
2019-04-04T17:23:20.146Z,98832.83
2019-04-04T17:28:23.967Z,98838.09
2019-04-04T17:33:28.739Z,98842.47
2019-04-04T17:38:32.640Z,98841.17
2019-04-04T17:43:36.811Z,98846.98
2019-04-04T17:48:40.593Z,98847.95
2019-04-04T17:53:44.668Z,98858.55
2019-04-04T17:58:48.460Z,98863.00
2019-04-04T18:03:52.219Z,98868.86
2019-04-04T18:08:55.920Z,98871.75
2019-04-04T18:13:59.601Z,98877.88
2019-04-04T18:19:03.238Z,98890.61
2019-04-04T18:24:06.848Z,98893.98
2019-04-04T18:29:10.457Z,98894.72
2019-04-04T18:34:14.359Z,98907.02
2019-04-04T18:39:18.923Z,98908.49
2019-04-04T18:44:22.550Z,98913.35
2019-04-04T18:49:26.185Z,98916.95
2019-04-04T18:54:29.790Z,98920.31
2019-04-04T18:59:33.442Z,98917.45
2019-04-04T19:04:37.030Z,98912.17
2019-04-04T19:09:40.645Z,98909.53
2019-04-04T19:14:44.263Z,98905.17
2019-04-04T19:19:47.887Z,98912.09
2019-04-04T19:24:51.608Z,98906.70
2019-04-04T19:29:55.373Z,98919.04
2019-04-04T19:34:59.051Z,98917.36
2019-04-04T19:40:02.670Z,98922.92
2019-04-04T19:45:07.826Z,98921.56
2019-04-04T19:50:11.454Z,98927.11
2019-04-04T19:55:15.173Z,98926.87
2019-04-04T20:00:18.787Z,98934.55
2019-04-04T20:05:22.405Z,98945.18
2019-04-04T20:10:26.241Z,98941.34
2019-04-04T20:15:30.424Z,98939.14
2019-04-04T20:20:34.755Z,98939.61
2019-04-04T20:25:38.670Z,98952.64
2019-04-04T20:30:43.283Z,98962.77
2019-04-04T20:35:47.808Z,98962.64
2019-04-04T20:40:51.433Z,98968.50
2019-04-04T20:45:55.049Z,98973.92
2019-04-04T20:50:58.883Z,98980.66
2019-04-04T20:56:02.608Z,98984.47
2019-04-04T21:01:06.220Z,98984.02
2019-04-04T21:06:09.938Z,98992.41
2019-04-04T21:11:13.512Z,98989.97
2019-04-04T21:16:17.177Z,98987.09
2019-04-04T21:21:20.899Z,98983.36
2019-04-04T21:26:24.521Z,98988.68
2019-04-04T21:31:28.144Z,98989.88
2019-04-04T21:36:31.861Z,98995.81
2019-04-04T21:41:35.417Z,98999.20
2019-04-04T21:46:39.119Z,99001.08
2019-04-04T21:51:42.716Z,99004.20
2019-04-04T21:56:46.276Z,99002.76
2019-04-04T22:01:49.952Z,99004.55
2019-04-04T22:06:53.583Z,99013.50
2019-04-04T22:11:57.196Z,99011.25
2019-04-04T22:17:00.914Z,99014.48
2019-04-04T22:22:04.945Z,99018.87
2019-04-04T22:27:08.564Z,99013.10
2019-04-04T22:32:12.183Z,99019.73
2019-04-04T22:37:15.802Z,99015.25
2019-04-04T22:42:19.529Z,99018.33
2019-04-04T22:47:23.250Z,99019.05
2019-04-04T22:52:26.868Z,99022.66
2019-04-04T22:57:30.496Z,99012.09
2019-04-04T23:02:34.208Z,99022.28
2019-04-04T23:07:37.831Z,99022.98
2019-04-04T23:12:41.451Z,99026.88
2019-04-04T23:17:45.504Z,99028.19
2019-04-04T23:22:53.088Z,99024.17
2019-04-04T23:27:54.664Z,99022.58
2019-04-04T23:32:58.282Z,99019.44
2019-04-04T23:38:01.906Z,99022.30
2019-04-04T23:43:05.523Z,99023.62
2019-04-04T23:48:09.137Z,99015.98
2019-04-04T23:53:12.759Z,99020.81
2019-04-04T23:58:16.377Z,99006.56
